MDT,Max TemperatureF,Mean TemperatureF,Min TemperatureF,Max Dew PointF,MeanDew PointF,Min DewpointF,Max Humidity, Mean Humidity, Min Humidity, Max Sea Level PressureIn, Mean Sea Level PressureIn, Min Sea Level PressureIn, Max VisibilityMiles, Mean VisibilityMiles, Min VisibilityMiles, Max Wind SpeedMPH, Mean Wind SpeedMPH, Max Gust SpeedMPH,PrecipitationIn, CloudCover, Events, WindDirDegrees
2011-10-1,86,68,49,38,33,29,47,30,13,30.08,30.02,29.97,10,10,10,21,11,26,0.00,0,,183
2011-10-2,86,69,52,38,34,31,47,31,14,30.02,29.97,29.90,10,10,10,16,10,69,0.00,0,,162
2011-10-3,85,69,52,40,34,28,54,34,14,30.05,29.96,29.90,10,10,10,14,8,17,0.00,0,,190
2011-10-4,84,68,52,39,34,26,54,35,15,29.91,29.82,29.75,10,10,10,32,14,43,0.00,0,,186
2011-10-5,76,65,53,51,41,33,80,54,27,29.73,29.63,29.53,10,10,10,32,20,43,0.00,0,,165
2011-10-6,81,67,53,52,37,18,89,52,15,29.57,29.44,29.27,10,10,7,46,23,61,T,3,Rain,193
2011-10-7,72,57,41,36,22,10,50,30,10,29.88,29.74,29.61,10,10,10,29,13,38,0.05,3,Rain,234
2011-10-8,48,44,40,45,41,37,100,93,86,30.11,29.88,29.80,10,7,2,26,16,33,0.26,8,Rain,327
2011-10-9,45,42,38,41,39,36,100,93,85,30.16,30.10,30.06,10,9,3,21,13,26,0.01,7,,314
2011-10-10,65,51,36,41,33,26,92,58,24,30.05,29.94,29.81,10,10,10,12,7,16,0.00,1,,189
2011-10-11,67,55,42,41,36,31,76,52,28,29.90,29.79,29.72,10,10,10,26,10,36,0.00,4,Rain,277
2011-10-12,64,52,39,38,31,25,64,44,23,30.07,29.97,29.82,10,10,10,33,17,43,0.00,1,,318
2011-10-13,71,54,36,32,26,21,65,41,16,30.05,29.98,29.87,10,10,10,14,7,17,0.00,1,,161
2011-10-14,65,51,37,31,28,24,70,47,24,30.09,30.02,29.95,10,10,10,20,9,26,0.00,0,,131
2011-10-15,83,66,48,35,28,22,50,30,10,30.00,29.90,29.80,10,10,10,24,15,33,0.00,0,,232
2011-10-16,59,47,35,36,33,28,85,63,40,30.13,30.03,29.86,10,10,10,23,12,30,0.00,0,,83
2011-10-17,46,38,29,42,35,29,96,77,58,30.28,30.09,29.87,10,9,5,35,17,43,0.30,5,Rain,314
2011-10-18,54,42,30,31,27,24,92,62,32,30.40,30.32,30.27,10,10,10,30,13,37,0.00,4,,320
2011-10-19,57,43,28,27,24,22,78,52,26,30.30,30.17,30.02,10,10,10,14,8,18,0.00,0,,225
2011-10-20,68,52,36,29,26,23,64,42,19,30.08,29.98,29.91,10,10,10,25,12,30,0.00,0,,242
2011-10-21,70,54,37,31,28,23,59,38,17,30.14,30.08,30.02,10,10,10,16,8,17,0.00,0,,241
2011-10-22,69,56,42,37,31,27,70,46,22,30.11,30.06,30.00,10,10,10,26,9,32,0.00,2,,309
2011-10-23,72,55,37,31,28,24,64,41,17,30.11,30.05,29.99,10,10,10,18,11,25,0.00,0,,250
2011-10-24,79,61,43,29,23,9,49,28,7,30.01,29.87,29.73,10,10,10,15,9,21,0.00,0,,239
2011-10-25,56,44,31,36,31,23,100,66,32,30.19,30.03,29.73,10,7,1,23,15,29,0.25,3,Rain-Snow,354
2011-10-26,31,25,18,31,26,17,100,93,85,30.35,30.23,30.16,10,2,0,18,13,23,0.30,7,Fog-Snow,345
2011-10-27,30,22,13,25,18,11,100,87,74,30.32,30.25,30.14,10,8,0,17,12,20,0.00,2,Fog,259
2011-10-28,38,29,20,28,21,17,88,68,47,30.41,30.32,30.16,10,9,7,18,13,26,0.00,0,,249
2011-10-29,54,41,28,34,27,21,75,60,44,30.15,30.02,29.90,10,10,10,26,14,31,0.00,0,,283
2011-10-30,55,42,30,31,28,26,88,61,37,30.25,30.18,30.11,10,10,10,13,9,,0.00,0,,260
2011-10-31,68,52,37,32,28,23,73,45,19,30.09,29.95,29.84,10,10,8,13,9,,0.00,0,,268